createdAt,value
2019-03-20T00:02:50.464Z,99703.98
2019-03-20T00:05:54.905Z,99704.92
2019-03-20T00:08:59.338Z,99705.70
2019-03-20T00:12:03.774Z,99708.05
2019-03-20T00:15:17.603Z,99703.53
2019-03-20T00:18:22.043Z,99707.77
2019-03-20T00:21:26.855Z,99712.22
2019-03-20T00:24:31.285Z,99715.45
2019-03-20T00:27:35.729Z,99711.80
2019-03-20T00:30:40.432Z,99717.91
2019-03-20T00:33:45.165Z,99719.00
2019-03-20T00:36:50.005Z,99714.55
2019-03-20T00:39:54.433Z,99715.78
2019-03-20T00:42:59.150Z,99714.92
2019-03-20T00:46:03.599Z,99714.66
2019-03-20T00:49:08.023Z,99710.38
2019-03-20T00:52:12.464Z,99712.65
2019-03-20T00:55:18.445Z,99717.98
2019-03-20T00:58:23.214Z,99713.26
2019-03-20T01:01:27.946Z,99714.16
2019-03-20T01:04:32.370Z,99718.77
2019-03-20T01:07:36.812Z,99714.42
2019-03-20T01:10:41.626Z,99708.95
2019-03-20T01:13:47.382Z,99708.38
2019-03-20T01:16:52.115Z,99710.83
2019-03-20T01:19:56.840Z,99712.72
2019-03-20T01:23:01.285Z,99705.36
2019-03-20T01:26:05.995Z,99707.17
2019-03-20T01:29:10.723Z,99703.05
2019-03-20T01:32:15.462Z,99696.59
2019-03-20T01:35:24.043Z,99698.86
2019-03-20T01:38:26.363Z,99698.98
2019-03-20T01:41:37.890Z,99703.11
2019-03-20T01:44:36.962Z,99701.89
2019-03-20T01:47:41.399Z,99695.89
2019-03-20T01:50:46.096Z,99703.27
2019-03-20T01:53:50.709Z,99704.53
2019-03-20T01:56:55.455Z,99692.16
2019-03-20T01:59:59.886Z,99697.30
2019-03-20T02:03:04.692Z,99697.55
2019-03-20T02:06:09.448Z,99696.56
2019-03-20T02:09:13.890Z,99692.39
2019-03-20T02:12:18.594Z,99703.36
2019-03-20T02:15:23.020Z,99704.44
2019-03-20T02:18:27.457Z,99709.48
2019-03-20T02:21:31.887Z,99710.21
2019-03-20T02:24:36.597Z,99702.30
2019-03-20T02:27:41.195Z,99696.75
2019-03-20T02:30:45.958Z,99700.59
2019-03-20T02:33:50.686Z,99701.42
2019-03-20T02:36:55.442Z,99702.01
2019-03-20T02:40:00.505Z,99713.22
2019-03-20T02:43:05.139Z,99711.55
2019-03-20T02:46:09.558Z,99719.78
2019-03-20T02:49:14.063Z,99704.70
2019-03-20T02:52:18.514Z,99712.23
2019-03-20T02:55:23.182Z,99716.93
2019-03-20T02:58:28.025Z,99718.06
2019-03-20T03:01:32.458Z,99713.05
2019-03-20T03:04:36.893Z,99716.80
2019-03-20T03:07:41.395Z,99716.51
2019-03-20T03:10:45.824Z,99712.63
2019-03-20T03:13:50.547Z,99711.42
2019-03-20T03:16:54.977Z,99716.31
2019-03-20T03:19:59.409Z,99716.73
2019-03-20T03:23:04.537Z,99719.95
2019-03-20T03:26:08.970Z,99717.47
2019-03-20T03:29:13.408Z,99722.45
2019-03-20T03:32:18.223Z,99725.94
2019-03-20T03:35:23.569Z,99727.23
2019-03-20T03:38:28.297Z,99726.93
2019-03-20T03:41:33.042Z,99725.92
2019-03-20T03:44:38.278Z,99723.95
2019-03-20T03:47:43.329Z,99726.66
2019-03-20T03:50:48.552Z,99735.36
2019-03-20T03:53:53.144Z,99730.27
2019-03-20T03:56:57.579Z,99736.44
2019-03-20T04:00:02.330Z,99745.82
2019-03-20T04:03:07.057Z,99743.89
2019-03-20T04:06:11.790Z,99742.14
2019-03-20T04:09:16.234Z,99745.02
2019-03-20T04:12:20.946Z,99754.09
2019-03-20T04:15:25.388Z,99753.59
2019-03-20T04:18:29.828Z,99754.88
2019-03-20T04:21:34.277Z,99749.37
2019-03-20T04:24:38.715Z,99753.70
2019-03-20T04:27:43.155Z,99756.55
2019-03-20T04:30:47.588Z,99758.16
2019-03-20T04:33:52.257Z,99765.20
2019-03-20T04:36:56.686Z,99768.58
2019-03-20T04:40:01.132Z,99774.42
2019-03-20T04:43:05.699Z,99781.90
2019-03-20T04:46:10.371Z,99778.43
2019-03-20T04:49:14.810Z,99775.72
2019-03-20T04:52:19.247Z,99775.28
2019-03-20T04:55:23.678Z,99776.80
2019-03-20T04:58:28.117Z,99781.02
2019-03-20T05:01:32.847Z,99793.38
2019-03-20T05:04:37.292Z,99791.18
2019-03-20T05:07:41.739Z,99794.66
2019-03-20T05:10:46.424Z,99802.50
2019-03-20T05:13:50.855Z,99801.86
2019-03-20T05:16:55.294Z,99809.91
2019-03-20T05:19:59.732Z,99809.42
2019-03-20T05:23:04.158Z,99811.09
2019-03-20T05:26:08.596Z,99809.78
2019-03-20T05:29:13.279Z,99811.50
2019-03-20T05:32:19.628Z,99807.44
2019-03-20T05:35:24.172Z,99822.97
2019-03-20T05:38:28.598Z,99815.89
2019-03-20T05:41:33.046Z,99821.66
2019-03-20T05:44:37.474Z,99817.53
2019-03-20T05:47:41.912Z,99820.63
2019-03-20T05:50:46.600Z,99831.72
2019-03-20T05:53:51.031Z,99832.03
2019-03-20T05:56:55.468Z,99842.09
2019-03-20T05:59:59.893Z,99841.42
2019-03-20T06:03:04.399Z,99845.69
2019-03-20T06:06:09.128Z,99838.74
2019-03-20T06:09:13.584Z,99835.13
2019-03-20T06:12:18.278Z,99837.58
2019-03-20T06:15:24.600Z,99839.36
2019-03-20T06:18:29.220Z,99837.66
2019-03-20T06:21:33.665Z,99833.51
2019-03-20T06:24:38.439Z,99838.16
2019-03-20T06:27:42.879Z,99836.20
2019-03-20T06:30:47.313Z,99833.70
2019-03-20T06:33:52.018Z,99838.55
2019-03-20T06:36:56.450Z,99832.83
2019-03-20T06:40:00.879Z,99837.95
2019-03-20T06:43:05.317Z,99841.41
2019-03-20T06:46:10.011Z,99842.77
2019-03-20T06:49:14.445Z,99834.80
2019-03-20T06:52:18.901Z,99840.72
2019-03-20T06:55:23.583Z,99853.38
2019-03-20T06:58:28.037Z,99850.09
2019-03-20T07:01:32.534Z,99856.64
2019-03-20T07:05:12.825Z,99858.77
2019-03-20T07:08:19.770Z,99859.83
2019-03-20T07:11:22.645Z,99859.39
2019-03-20T07:14:27.106Z,99872.22
2019-03-20T07:17:31.556Z,99871.26
2019-03-20T07:20:37.634Z,99869.78
2019-03-20T07:23:42.090Z,99868.13
2019-03-20T07:26:47.965Z,99876.28
2019-03-20T07:29:52.401Z,99872.99
2019-03-20T07:32:56.871Z,99881.69
2019-03-20T07:36:01.265Z,99893.67
2019-03-20T07:39:10.122Z,99896.43
2019-03-20T07:42:14.549Z,99897.80
2019-03-20T07:45:18.980Z,99896.06
2019-03-20T07:48:23.423Z,99904.06
2019-03-20T07:51:27.848Z,99908.48
2019-03-20T07:54:32.296Z,99906.34
2019-03-20T07:57:36.730Z,99913.95
2019-03-20T08:00:41.162Z,99912.08
2019-03-20T08:03:45.962Z,99917.25
2019-03-20T08:06:50.693Z,99916.88
2019-03-20T08:09:55.525Z,99918.78
2019-03-20T08:13:00.360Z,99924.87
2019-03-20T08:16:04.788Z,99935.28
2019-03-20T08:19:09.229Z,99932.93
2019-03-20T08:22:13.934Z,99938.11
2019-03-20T08:25:18.357Z,99933.33
2019-03-20T08:28:23.040Z,99933.86
2019-03-20T08:31:27.462Z,99924.34
2019-03-20T08:34:33.578Z,99926.80
2019-03-20T08:37:38.026Z,99938.27
2019-03-20T08:40:42.507Z,99939.61
2019-03-20T08:43:47.303Z,99932.86
2019-03-20T08:46:51.756Z,99928.45
2019-03-20T08:49:56.231Z,99928.43
2019-03-20T08:53:00.650Z,99927.88
2019-03-20T08:56:05.152Z,99925.22
2019-03-20T08:59:09.921Z,99924.52
2019-03-20T09:02:14.647Z,99928.20
2019-03-20T09:05:19.144Z,99924.65
2019-03-20T09:08:29.308Z,99930.92
2019-03-20T09:11:29.784Z,99927.77
2019-03-20T09:14:34.598Z,99940.32
2019-03-20T09:17:39.064Z,99932.63
2019-03-20T09:20:43.927Z,99929.88
2019-03-20T09:23:48.655Z,99920.80
2019-03-20T09:26:53.098Z,99922.20
2019-03-20T09:29:57.542Z,99924.67
2019-03-20T09:33:01.986Z,99928.84
2019-03-20T09:36:06.760Z,99925.80
2019-03-20T09:39:11.207Z,99924.95
2019-03-20T09:42:15.645Z,99927.92
2019-03-20T09:45:21.800Z,99926.56
2019-03-20T09:48:26.247Z,99934.88
2019-03-20T09:51:30.677Z,99932.16
2019-03-20T09:54:35.450Z,99927.69
2019-03-20T09:57:40.183Z,99932.81
2019-03-20T10:00:44.621Z,99929.55
2019-03-20T10:03:49.065Z,99921.77
2019-03-20T10:06:53.864Z,99926.42
2019-03-20T10:09:58.306Z,99930.27
2019-03-20T10:13:02.791Z,99926.89
2019-03-20T10:16:07.290Z,99925.13
2019-03-20T10:19:11.805Z,99926.16
2019-03-20T10:22:16.494Z,99930.31
2019-03-20T10:25:20.947Z,99928.27
2019-03-20T10:28:25.639Z,99927.38
2019-03-20T10:31:30.097Z,99929.35
2019-03-20T10:34:39.413Z,99938.30
2019-03-20T10:37:41.106Z,99932.91
2019-03-20T10:40:45.939Z,99936.22
2019-03-20T10:43:52.367Z,99930.21
2019-03-20T10:46:57.031Z,99926.60
2019-03-20T10:50:01.879Z,99929.39
2019-03-20T10:53:06.358Z,99924.73
2019-03-20T10:56:10.836Z,99930.65
2019-03-20T10:59:15.679Z,99925.39
2019-03-20T11:02:20.483Z,99928.69
2019-03-20T11:05:24.967Z,99931.66
2019-03-20T11:08:29.446Z,99934.07
2019-03-20T11:11:33.923Z,99936.04
2019-03-20T11:14:38.689Z,99943.70
2019-03-20T11:17:43.540Z,99943.02
2019-03-20T11:20:48.006Z,99935.34
2019-03-20T11:23:52.482Z,99940.22
2019-03-20T11:26:56.967Z,99932.45
2019-03-20T11:30:01.735Z,99931.66
2019-03-20T11:33:06.282Z,99921.30
2019-03-20T11:36:11.090Z,99925.79
2019-03-20T11:39:15.641Z,99919.80
2019-03-20T11:42:20.449Z,99917.66
2019-03-20T11:45:25.282Z,99910.55
2019-03-20T11:48:29.765Z,99914.08
2019-03-20T11:51:34.249Z,99900.67
2019-03-20T11:54:38.737Z,99904.59
2019-03-20T11:57:43.209Z,99903.69
2019-03-20T12:00:48.011Z,99908.05
2019-03-20T12:03:52.950Z,99894.45
2019-03-20T12:06:57.516Z,99888.67
2019-03-20T12:10:01.997Z,99884.04
2019-03-20T12:13:06.552Z,99881.40
2019-03-20T12:16:11.029Z,99870.69
2019-03-20T12:19:15.783Z,99867.32
2019-03-20T12:22:20.617Z,99865.91
2019-03-20T12:25:36.363Z,99853.77
2019-03-20T12:28:41.139Z,99855.43
2019-03-20T12:31:45.970Z,99856.73
2019-03-20T12:34:50.450Z,99854.17
2019-03-20T12:37:54.935Z,99851.88
2019-03-20T12:40:59.758Z,99843.56
2019-03-20T12:44:04.595Z,99838.63
2019-03-20T12:47:09.076Z,99840.52
2019-03-20T12:50:14.563Z,99835.73
2019-03-20T12:53:32.155Z,99833.64
2019-03-20T12:56:36.633Z,99823.19
2019-03-20T12:59:41.117Z,99819.18
2019-03-20T13:02:45.871Z,99818.92
2019-03-20T13:05:50.346Z,99816.17
2019-03-20T13:08:55.131Z,99816.89
2019-03-20T13:11:59.962Z,99816.67
2019-03-20T13:15:06.920Z,99815.79
2019-03-20T13:18:11.393Z,99813.30
2019-03-20T13:21:16.207Z,99804.53
2019-03-20T13:24:20.671Z,99805.52
2019-03-20T13:27:25.157Z,99802.69
2019-03-20T13:30:42.823Z,99804.27
2019-03-20T13:33:49.212Z,99801.23
2019-03-20T13:36:53.779Z,99800.19
2019-03-20T13:39:58.625Z,99799.81
2019-03-20T13:43:03.098Z,99795.91
2019-03-20T13:46:07.875Z,99797.35
2019-03-20T13:49:12.703Z,99797.27
2019-03-20T13:52:17.188Z,99797.42
2019-03-20T13:55:21.658Z,99791.20
2019-03-20T13:58:26.491Z,99791.45
2019-03-20T14:01:31.319Z,99788.08
2019-03-20T14:04:36.156Z,99775.83
2019-03-20T14:07:40.707Z,99779.04
2019-03-20T14:10:50.436Z,99790.23
2019-03-20T14:13:51.402Z,99783.17
2019-03-20T14:16:56.208Z,99784.12
2019-03-20T14:20:00.677Z,99759.44
2019-03-20T14:23:05.173Z,99765.89
2019-03-20T14:26:09.655Z,99766.33
2019-03-20T14:29:14.130Z,99781.42
2019-03-20T14:32:18.878Z,99768.75
2019-03-20T14:35:23.671Z,99767.73
2019-03-20T14:38:28.157Z,99775.33
2019-03-20T14:41:32.926Z,99765.72
2019-03-20T14:44:37.408Z,99763.17
2019-03-20T14:47:42.466Z,99760.12
2019-03-20T14:50:47.626Z,99762.55
2019-03-20T14:53:52.111Z,99762.83
2019-03-20T14:56:56.905Z,99758.80
2019-03-20T15:00:01.377Z,99757.22
2019-03-20T15:03:06.152Z,99753.94
2019-03-20T15:06:10.977Z,99750.61
2019-03-20T15:09:15.461Z,99748.13
2019-03-20T15:12:19.994Z,99745.19
2019-03-20T15:15:31.268Z,99739.90
2019-03-20T15:18:36.038Z,99743.95
2019-03-20T15:21:40.881Z,99736.09
2019-03-20T15:24:45.353Z,99737.99
2019-03-20T15:27:49.903Z,99736.92
2019-03-20T15:30:54.770Z,99735.23
2019-03-20T15:33:59.259Z,99740.89
2019-03-20T15:37:03.738Z,99745.12
2019-03-20T15:40:15.227Z,99745.06
2019-03-20T15:43:19.713Z,99744.66
2019-03-20T15:46:24.462Z,99752.33
2019-03-20T15:49:29.286Z,99747.79
2019-03-20T15:52:33.769Z,99745.70
2019-03-20T15:55:41.932Z,99749.43
2019-03-20T15:58:46.756Z,99756.77
2019-03-20T16:01:51.227Z,99755.31
2019-03-20T16:04:56.014Z,99749.36
2019-03-20T16:08:00.497Z,99755.58
2019-03-20T16:11:06.818Z,99761.22
2019-03-20T16:14:11.636Z,99769.82
2019-03-20T16:17:16.124Z,99775.14
2019-03-20T16:20:20.600Z,99778.08
2019-03-20T16:23:25.091Z,99785.53
2019-03-20T16:26:29.576Z,99787.84
2019-03-20T16:29:34.300Z,99792.77
2019-03-20T16:32:39.125Z,99783.52
2019-03-20T16:35:43.839Z,99791.23
2019-03-20T16:38:48.575Z,99791.45
2019-03-20T16:41:53.058Z,99797.27
2019-03-20T16:44:58.751Z,99797.83
2019-03-20T16:48:03.234Z,99796.57
2019-03-20T16:51:07.743Z,99797.22
2019-03-20T16:54:12.523Z,99794.25
2019-03-20T16:57:17.399Z,99797.41
2019-03-20T17:00:29.783Z,99799.38
2019-03-20T17:03:34.604Z,99803.20
2019-03-20T17:06:39.437Z,99808.20
2019-03-20T17:09:44.266Z,99808.67
2019-03-20T17:12:49.101Z,99801.14
2019-03-20T17:15:53.585Z,99800.61
2019-03-20T17:18:58.072Z,99804.65
2019-03-20T17:22:02.590Z,99809.42
2019-03-20T17:25:10.739Z,99811.80
2019-03-20T17:28:15.225Z,99810.70
2019-03-20T17:31:20.046Z,99817.22
2019-03-20T17:34:24.880Z,99824.67
2019-03-20T17:37:29.357Z,99830.32
2019-03-20T17:40:33.839Z,99822.41
2019-03-20T17:43:38.665Z,99825.59
2019-03-20T17:46:43.500Z,99830.14
2019-03-20T17:49:48.330Z,99827.63
2019-03-20T17:52:52.827Z,99821.97
2019-03-20T17:55:57.307Z,99820.27
2019-03-20T17:59:02.218Z,99817.78
2019-03-20T18:02:06.689Z,99815.63
2019-03-20T18:05:11.237Z,99816.78
2019-03-20T18:08:15.716Z,99812.78
2019-03-20T18:11:20.191Z,99821.30
2019-03-20T18:14:24.953Z,99825.24
2019-03-20T18:17:29.772Z,99834.21
2019-03-20T18:20:34.614Z,99835.27
2019-03-20T18:23:39.447Z,99837.30
2019-03-20T18:26:43.955Z,99844.57
2019-03-20T18:29:48.460Z,99843.09
2019-03-20T18:32:53.325Z,99847.41
2019-03-20T18:35:58.157Z,99854.70
2019-03-20T18:39:02.887Z,99855.70
2019-03-20T18:42:09.517Z,99865.15
2019-03-20T18:45:22.314Z,99864.00
2019-03-20T18:48:26.979Z,99862.67
2019-03-20T18:51:31.650Z,99875.91
2019-03-20T18:54:36.135Z,99870.77
2019-03-20T18:57:40.871Z,99873.41
2019-03-20T19:00:45.317Z,99870.70
2019-03-20T19:03:50.018Z,99866.88
2019-03-20T19:06:54.469Z,99861.98
2019-03-20T19:09:58.981Z,99871.34
2019-03-20T19:13:03.423Z,99875.91
2019-03-20T19:16:07.931Z,99876.06
2019-03-20T19:19:12.363Z,99877.36
2019-03-20T19:22:17.082Z,99876.28
2019-03-20T19:25:21.515Z,99879.37
2019-03-20T19:28:25.942Z,99886.11
2019-03-20T19:31:30.758Z,99891.70
2019-03-20T19:34:35.493Z,99888.40
2019-03-20T19:37:39.911Z,99884.03
2019-03-20T19:40:44.341Z,99891.11
2019-03-20T19:43:48.767Z,99886.13
2019-03-20T19:46:53.483Z,99896.59
2019-03-20T19:49:57.922Z,99894.14
2019-03-20T19:53:02.364Z,99894.58
2019-03-20T19:56:06.822Z,99891.91
2019-03-20T19:59:11.588Z,99894.41
2019-03-20T20:02:16.020Z,99899.92
2019-03-20T20:05:20.461Z,99905.91
2019-03-20T20:08:25.171Z,99902.35
2019-03-20T20:11:29.604Z,99906.51
2019-03-20T20:14:34.028Z,99906.61
2019-03-20T20:17:38.467Z,99909.78
2019-03-20T20:20:42.910Z,99908.87
2019-03-20T20:23:47.340Z,99913.16
2019-03-20T20:26:51.780Z,99909.48
2019-03-20T20:29:56.207Z,99918.69
2019-03-20T20:33:00.648Z,99918.48
2019-03-20T20:36:05.086Z,99914.70
2019-03-20T20:39:09.520Z,99925.15
2019-03-20T20:42:14.230Z,99918.91
2019-03-20T20:45:18.727Z,99929.25
2019-03-20T20:48:23.220Z,99922.54
2019-03-20T20:51:27.604Z,99922.55
2019-03-20T20:54:32.076Z,99920.54
2019-03-20T20:57:36.518Z,99919.64
2019-03-20T21:00:40.946Z,99918.06
2019-03-20T21:03:45.724Z,99924.45
2019-03-20T21:06:50.151Z,99925.25
2019-03-20T21:09:54.584Z,99925.33
2019-03-20T21:12:59.047Z,99928.72
2019-03-20T21:16:03.563Z,99934.84
2019-03-20T21:19:36.049Z,99931.03
2019-03-20T21:23:20.418Z,99932.06
2019-03-20T21:26:44.076Z,99933.62
2019-03-20T21:30:18.811Z,99934.56
2019-03-20T21:33:55.899Z,99931.83
2019-03-20T21:37:07.870Z,99926.52
2019-03-20T21:40:14.805Z,99933.38
2019-03-20T21:43:57.196Z,99937.21
2019-03-20T21:47:35.364Z,99939.98
2019-03-20T21:51:02.191Z,99943.75
2019-03-20T21:54:17.491Z,99947.46
2019-03-20T21:57:35.130Z,99949.58
2019-03-20T22:01:23.785Z,99944.39
2019-03-20T22:04:28.225Z,99945.42
2019-03-20T22:07:32.944Z,99945.79
2019-03-20T22:11:01.836Z,99937.95
2019-03-20T22:14:12.820Z,99939.89
2019-03-20T22:17:51.158Z,99938.92
2019-03-20T22:21:18.401Z,99934.81
2019-03-20T22:24:49.656Z,99929.97
2019-03-20T22:28:21.057Z,99937.09
2019-03-20T22:31:26.902Z,99935.05
2019-03-20T22:35:12.335Z,99926.01
2019-03-20T22:38:30.591Z,99940.50
2019-03-20T22:41:58.931Z,99948.61
2019-03-20T22:45:24.743Z,99949.98
2019-03-20T22:49:08.751Z,99938.84
2019-03-20T22:52:26.812Z,99946.45
2019-03-20T22:55:38.718Z,99949.10
2019-03-20T22:58:49.262Z,99954.03
2019-03-20T23:02:09.764Z,99950.13
2019-03-20T23:05:14.487Z,99951.34
2019-03-20T23:08:19.221Z,99946.44
2019-03-20T23:11:23.665Z,99948.74
2019-03-20T23:14:28.368Z,99942.11
2019-03-20T23:17:32.800Z,99935.81
2019-03-20T23:20:37.302Z,99938.73
2019-03-20T23:23:42.057Z,99936.00
2019-03-20T23:26:46.794Z,99925.86
2019-03-20T23:29:51.229Z,99925.27
2019-03-20T23:32:55.672Z,99923.20
2019-03-20T23:36:00.106Z,99922.70
2019-03-20T23:39:06.920Z,99926.63
2019-03-20T23:42:11.346Z,99920.37
2019-03-20T23:45:19.286Z,99923.84
2019-03-20T23:48:34.234Z,99930.23
2019-03-20T23:51:38.666Z,99925.63
2019-03-20T23:54:47.609Z,99926.80
2019-03-20T23:57:52.032Z,99918.01
